^^
Datos históricos de la estación: Murcia-Puente Tocinos
Diario Informe para Marzo 20, 2019 Unidades:  Ingés    Métrico   Ambas
Diario Semanal Mensual Anual
  Máxima: Mínima: Promedio:
Temperatura: 57.9 °F 46.9 °F 52.2 °F
Punto de rocio: 48 °F 34.5 °F 43.5 °F
Humedad: 93% 49% 74%
Velocidad viento: 13.7mph 0mph 4.6mph
Racha viento: 26mph - -
Viento- - OSO
Presión: 30 in 29.7 in -
Precipitación: 0.06 in    
 
 
Tabla de datos para Marzo 20, 2019
Hora Temperatura Punto de rocio Presión Viento Velocidad viento Racha viento Humedad Intensidad lluvia(por hora) Nubes
00:04 51.3 °F 43.5 °F 29.9 in ESE 2 mph 5 mph 75% 0 in
00:09 51.3 °F 43.5 °F 29.8 in ESE 1.9 mph 4 mph 75% 0 in
00:14 51.4 °F 43.7 °F 29.8 in ESE 1.8 mph 2 mph 75% 0 in
00:19 51.4 °F 43.9 °F 29.9 in ESE 0.9 mph   75.6% 0 in
00:24 51.4 °F 44.1 °F 29.9 in Calm     76% 0 in
00:29 51.4 °F 44.2 °F 29.9 in Calm     76.2% 0 in
00:34 51.6 °F 44.4 °F 29.9 in Calm   1.4 mph 76.6% 0 in
00:39 51.6 °F 44.2 °F 29.8 in Calm   1 mph 76% 0 in
00:44 51.8 °F 44.4 °F 29.8 in Calm     76% 0 in
00:49 52 °F 45 °F 29.8 in ESE 0.7 mph 3.6 mph 76.8% 0 in
00:54 52.2 °F 45.3 °F 29.8 in ESE 1.4 mph 4 mph 77.5% 0 in
00:59 52.2 °F 45.3 °F 29.8 in ESE 1.7 mph 3.5 mph 77.5% 0 in
01:04 52.2 °F 45.7 °F 29.8 in ESE 2 mph 4.6 mph 78.6% 0 in
01:09 52 °F 45.7 °F 29.8 in ESE 1.6 mph 5 mph 78.9% 0 in
01:14 51.6 °F 45.3 °F 29.8 in ESE 1.4 mph 3.6 mph 78.6% 0 in
01:19 51.4 °F 45.1 °F 29.8 in ESE 1.6 mph 4 mph 79% 0.01 in
01:24 51.3 °F 45.1 °F 29.8 in ESE 1.8 mph 4 mph 79.6% 0.01 in
01:29 51.3 °F 45.7 °F 29.8 in ESE 1.8 mph 3 mph 81.2% 0.01 in
01:34 51.3 °F 46 °F 29.8 in ESE 1.8 mph 2 mph 82% 0.01 in
01:39 51.3 °F 46 °F 29.8 in ESE 0.7 mph 2.3 mph 82% 0.01 in
01:44 51.3 °F 46 °F 29.8 in Calm   2 mph 82.3% 0.01 in
01:49 51.3 °F 46.2 °F 29.8 in Calm   4.6 mph 83% 0.01 in
01:54 51.1 °F 46 °F 29.8 in Calm   5 mph 83% 0.01 in
01:59 51.1 °F 46.2 °F 29.8 in ESE 1.4 mph 4 mph 83.3% 0.01 in
02:04 51.1 °F 46.4 °F 29.8 in ESE 2 mph 3 mph 84% 0.03 in
02:09 51.1 °F 46.4 °F 29.8 in ESE 0.8 mph 4 mph 84% 0.03 in
02:14 51.1 °F 46.4 °F 29.8 in Calm   5 mph 84% 0.03 in
02:19 50.7 °F 46.4 °F 29.8 in SE 1.5 mph 5 mph 84.6% 0.03 in
02:24 50.7 °F 46.4 °F 29.8 in SE 2.4 mph 5 mph 85% 0.02 in
02:29 50.7 °F 46.4 °F 29.8 in SE 1.8 mph 2.9 mph 85.2% 0.02 in
02:34 50.7 °F 46.8 °F 29.8 in SE 1.4 mph 3 mph 86% 0.02 in
02:39 50.7 °F 46.8 °F 29.8 in SE 1.4 mph 3.6 mph 86% 0.02 in
02:44 50.7 °F 46.8 °F 29.8 in SE 1.4 mph 2.3 mph 86% 0.02 in
02:49 50.7 °F 46.8 °F 29.8 in SE 0.5 mph   86.3% 0.02 in
02:54 50.7 °F 46.9 °F 29.8 in Calm     87% 0.02 in
02:59 50.5 °F 46.9 °F 29.8 in Calm     87% 0.02 in
03:04 50.5 °F 46.8 °F 29.8 in Calm     87% 0.02 in
03:09 50.4 °F 46.6 °F 29.8 in Calm     87% 0.02 in
03:14 50.2 °F 46.6 °F 29.8 in Calm     87% 0 in
03:19 50.2 °F 46.4 °F 29.8 in Calm     87% 0 in
03:24 50 °F 46.4 °F 29.8 in Calm     87.4% 0 in
03:29 49.8 °F 46.4 °F 29.8 in Calm     88% 0 in
03:34 49.8 °F 46.4 °F 29.8 in Calm     88% 0.01 in
03:39 49.8 °F 46.4 °F 29.8 in Calm     88.3% 0.01 in
03:44 49.8 °F 46.8 °F 29.8 in Calm   3.1 mph 89% 0.01 in
03:49 50.2 °F 47.1 °F 29.8 in SE 0.9 mph 3.6 mph 89% 0.01 in
03:54 50.2 °F 47.1 °F 29.8 in SE 1.4 mph 4 mph 89% 0.01 in
03:59 50.2 °F 47.1 °F 29.8 in SE 1.7 mph 3 mph 89% 0.01 in
04:04 50.2 °F 47.1 °F 29.8 in SE 1.8 mph 3.5 mph 89% 0.01 in
04:09 50 °F 46.9 °F 29.8 in SE 1.8 mph 3.5 mph 89.4% 0.01 in
04:14 49.8 °F 46.8 °F 29.8 in SE 1.8 mph 5.2 mph 89.3% 0.01 in
04:19 49.6 °F 46.8 °F 29.8 in SE 1.9 mph 5 mph 89.6% 0.01 in
04:24 49.6 °F 46.8 °F 29.8 in SE 2 mph 4.6 mph 90% 0.01 in
04:29 49.5 °F 46.6 °F 29.8 in SE 2 mph 5 mph 90% 0.01 in
04:34 49.5 °F 46.6 °F 29.8 in SE 2 mph 4.3 mph 90% 0.01 in
04:39 49.5 °F 46.6 °F 29.8 in SE 1.9 mph 5 mph 90% 0.01 in
04:44 49.5 °F 46.8 °F 29.8 in SE 1.8 mph 5.2 mph 90.6% 0 in
04:49 49.5 °F 46.9 °F 29.8 in SE 2.5 mph 5 mph 91% 0 in
04:54 49.5 °F 46.9 °F 29.7 in SE 2.9 mph 5 mph 91% 0 in
04:59 49.5 °F 46.9 °F 29.7 in SE 2.1 mph 4.6 mph 91% 0 in
05:04 49.5 °F 46.9 °F 29.7 in SE 1.8 mph 5 mph 91% 0 in
05:09 49.5 °F 46.9 °F 29.7 in SE 1.6 mph 3 mph 91% 0 in
05:14 49.5 °F 46.9 °F 29.7 in SE 1.4 mph   91% 0 in
05:19 49.5 °F 46.9 °F 29.7 in SE 0.6 mph   91% 0 in
05:24 49.3 °F 46.8 °F 29.7 in Calm   4.7 mph 91% 0 in
05:29 49.3 °F 46.8 °F 29.7 in SSO 1.1 mph 5 mph 91% 0 in
05:34 49.3 °F 46.8 °F 29.7 in SSO 1.8 mph 5 mph 91% 0 in
05:39 48.9 °F 46.4 °F 29.7 in SSO 0.7 mph   91% 0 in
05:44 48.9 °F 46.4 °F 29.7 in Calm   3.1 mph 91% 0 in
05:49 48.9 °F 46.4 °F 29.7 in Calm   3.6 mph 91% 0 in
05:54 48.7 °F 46.2 °F 29.7 in Calm   4 mph 91% 0 in
05:59 48.7 °F 46.2 °F 29.7 in ONO 0.9 mph 6.9 mph 91% 0 in
06:04 48.6 °F 46 °F 29.7 in ONO 1.4 mph 7 mph 91.1% 0 in
06:09 48.4 °F 46.2 °F 29.7 in ONO 2.3 mph 5 mph 92% 0 in
06:14 48.4 °F 46.2 °F 29.7 in ONO 2.9 mph 5 mph 92% 0 in
06:19 48.2 °F 46 °F 29.7 in ONO 2.9 mph 5 mph 92% 0 in
06:24 48 °F 45.9 °F 29.7 in ONO 2.9 mph 5 mph 92% 0 in
06:29 48 °F 45.9 °F 29.7 in ONO 2 mph 4.6 mph 92% 0 in
06:34 48 °F 45.9 °F 29.7 in SO 1.4 mph 5 mph 92% 0 in
06:39 48 °F 45.9 °F 29.7 in SO 1.7 mph 4 mph 92% 0 in
06:44 48 °F 45.9 °F 29.7 in SSE 2 mph 5.8 mph 92% 0 in
06:49 48 °F 45.9 °F 29.7 in SE 2.5 mph 6 mph 92% 0 in
06:54 47.8 °F 45.7 °F 29.7 in SE 2.9 mph 5 mph 92% 0 in
06:59 47.7 °F 45.5 °F 29.7 in SE 2.5 mph 5 mph 92% 0 in
07:04 47.7 °F 45.5 °F 29.7 in SSE 2.4 mph 5 mph 92% 0 in
07:09 47.5 °F 45.3 °F 29.7 in Sur 2.7 mph 5 mph 92% 0 in
07:14 47.5 °F 45.3 °F 29.7 in SSE 2.9 mph 5.2 mph 92% 0 in
07:19 47.5 °F 45.3 °F 29.7 in SSE 3 mph 6.4 mph 92% 0.01 in
07:24 47.1 °F 45 °F 29.7 in Sur 3.1 mph 7 mph 92% 0.01 in
07:29 47.1 °F 45 °F 29.7 in Sur 3.9 mph 7 mph 92% 0.01 in
07:34 47.1 °F 45 °F 29.7 in Sur 4.3 mph 6 mph 92.1% 0.01 in
07:39 46.9 °F 45.1 °F 29.7 in Sur 3.4 mph 5 mph 93% 0.01 in
07:44 47.1 °F 45.1 °F 29.7 in Sur 2.9 mph 5.4 mph 93% 0.01 in
07:49 47.1 °F 45.1 °F 29.7 in SSO 3.3 mph 6 mph 93% 0.01 in
07:54 47.1 °F 45.1 °F 29.7 in SSO 3.6 mph 6 mph 93% 0.01 in
07:59 47.1 °F 45.3 °F 29.7 in SO 3.1 mph 6 mph 93% 0.01 in
08:04 47.3 °F 45.1 °F 29.7 in SO 2.9 mph 6 mph 92.4% 0.01 in
08:09 47.3 °F 45 °F 29.7 in SO 2.9 mph 5.8 mph 92% 0.01 in
08:14 47.3 °F 45.1 °F 29.7 in OSO 2.9 mph 6.4 mph 92% 0.01 in
08:19 47.3 °F 45.1 °F 29.7 in SO 3 mph 7 mph 92% 0.01 in
08:24 47.3 °F 45.1 °F 29.7 in SSO 3.1 mph 7 mph 92% 0.01 in
08:29 47.3 °F 45.1 °F 29.7 in Sur 3.7 mph 7 mph 92% 0 in
08:34 47.3 °F 45.1 °F 29.7 in Sur 4 mph 7 mph 92% 0 in
08:39 47.1 °F 45 °F 29.7 in Sur 4 mph 6.9 mph 92% 0 in
08:44 47.1 °F 45 °F 29.7 in SSO 4 mph 7.6 mph 92% 0 in
08:49 47.1 °F 45 °F 29.7 in SSO 4.4 mph 8.1 mph 92% 0 in
08:54 47.3 °F 45.1 °F 29.7 in SO 4.7 mph 7 mph 92% 0 in
08:59 47.5 °F 45.1 °F 29.7 in SO 4.4 mph 6.9 mph 91.3% 0 in
09:04 47.7 °F 45.1 °F 29.7 in SO 4.3 mph 7.4 mph 91% 0 in
09:09 47.7 °F 45 °F 29.7 in SSO 4.5 mph 8.5 mph 90.3% 0 in
09:14 47.8 °F 45 °F 29.7 in SO 4.7 mph 9 mph 90% 0 in
09:19 47.8 °F 45 °F 29.7 in SO 4.3 mph 7 mph 90% 0 in
09:24 47.8 °F 45 °F 29.7 in SO 4 mph 7.6 mph 90% 0 in
09:29 47.8 °F 45 °F 29.7 in OSO 4.2 mph 8.1 mph 90% 0 in
09:34 47.8 °F 45 °F 29.7 in SSO 4.3 mph 8 mph 90% 0 in
09:39 47.8 °F 45 °F 29.7 in SSO 3.9 mph 6 mph 90% 0 in
09:44 47.8 °F 45.1 °F 29.7 in OSO 3.6 mph 6 mph 90% 0.01 in
09:49 48 °F 45.1 °F 29.7 in OSO 2.5 mph 5 mph 90% 0.01 in
09:54 48 °F 45.1 °F 29.7 in OSO 1.8 mph 5.4 mph 90% 0.01 in
09:59 48 °F 45.1 °F 29.7 in OSO 1.8 mph 6 mph 90% 0.01 in
10:04 48 °F 45.1 °F 29.7 in SO 1.8 mph 6.9 mph 90% 0.01 in
10:09 47.8 °F 45.1 °F 29.7 in SO 2.9 mph 7 mph 90.1% 0.01 in
10:14 47.8 °F 45.3 °F 29.7 in SSO 3.6 mph 7 mph 91% 0.01 in
10:19 48 °F 45.5 °F 29.7 in Sur 4 mph 6.2 mph 91% 0.01 in
10:24 48.2 °F 45.7 °F 29.7 in Sur 4.3 mph 6.9 mph 91% 0.01 in
10:29 48.4 °F 45.9 °F 29.7 in SSO 4.1 mph 7 mph 91% 0.01 in
10:34 48.6 °F 46 °F 29.8 in Sur 4 mph 6.2 mph 91% 0.01 in
10:39 48.6 °F 46 °F 29.8 in SSO 3.8 mph 6.2 mph 90.8% 0.01 in
10:44 48.6 °F 46 °F 29.8 in OSO 3.6 mph 6 mph 91% 0.01 in
10:49 48.7 °F 46.2 °F 29.8 in SSO 3.3 mph 5.9 mph 91% 0 in
10:54 49.1 °F 46.6 °F 29.8 in SO 3.1 mph 6 mph 91% 0 in
10:59 49.5 °F 46.8 °F 29.8 in Oeste 3.4 mph 6.4 mph 90.7% 0 in
11:04 49.6 °F 46.6 °F 29.8 in OSO 3.6 mph 8.5 mph 89.4% 0 in
11:09 50 °F 46.6 °F 29.8 in ONO 4.5 mph 9 mph 88.1% 0 in
11:14 50.5 °F 47.1 °F 29.8 in ONO 5.2 mph 8 mph 88% 0 in
11:19 51.1 °F 47.3 °F 29.8 in Oeste 3.8 mph 6 mph 87% 0 in
11:24 51.4 °F 47.3 °F 29.8 in SO 2.9 mph 6.2 mph 85.5% 0 in
11:29 52 °F 47.1 °F 29.8 in SSO 2.9 mph 6 mph 83.4% 0 in
11:34 52.2 °F 46.9 °F 29.8 in SSO 2.9 mph 6 mph 82.4% 0 in
11:39 52.5 °F 46.9 °F 29.8 in SO 2.6 mph 5.2 mph 80.9% 0 in
11:44 53.1 °F 46.9 °F 29.8 in ONO 2.4 mph 5 mph 79.8% 0 in
11:49 53.2 °F 47.1 °F 29.8 in ONO 2.2 mph 5 mph 79.8% 0 in
11:54 53.6 °F 47.3 °F 29.8 in OSO 2 mph 6.9 mph 79.2% 0 in
11:59 54 °F 47.3 °F 29.8 in SSO 2.5 mph 7 mph 78% 0 in
12:04 54.1 °F 47.3 °F 29.8 in Sur 2.9 mph 6.2 mph 78% 0 in
12:09 54.1 °F 47.5 °F 29.8 in SO 2.9 mph 6.9 mph 77.8% 0 in
12:14 54.5 °F 47.3 °F 29.8 in SO 2.9 mph 7 mph 77% 0 in
12:19 54.7 °F 47.5 °F 29.8 in OSO 3.3 mph 7 mph 76.7% 0 in
12:24 54.9 °F 47.8 °F 29.8 in Oeste 3.6 mph 7.4 mph 76.8% 0 in
12:29 55 °F 47.7 °F 29.8 in OSO 3.3 mph 7 mph 76% 0 in
12:34 55.2 °F 47.8 °F 29.8 in Oeste 3.1 mph 8.5 mph 76.1% 0 in
12:39 55.8 °F 48 °F 29.8 in OSO 3.7 mph 9 mph 75.4% 0 in
12:44 55.9 °F 47.8 °F 29.8 in Oeste 4 mph 8.5 mph 74.2% 0 in
12:49 56.1 °F 47.7 °F 29.8 in OSO 4.2 mph 9.2 mph 73.4% 0 in
12:54 56.5 °F 47.7 °F 29.8 in OSO 4.3 mph 10.7 mph 72.1% 0 in
12:59 56.5 °F 47.5 °F 29.8 in OSO 5.3 mph 11 mph 71.4% 0 in
13:04 56.7 °F 47.5 °F 29.8 in Oeste 5.9 mph 11 mph 71.2% 0 in
13:09 56.7 °F 46.9 °F 29.8 in ONO 5.5 mph 13 mph 69.7% 0 in
13:14 56.8 °F 46.2 °F 29.8 in ONO 5.2 mph 16.1 mph 67.7% 0 in
13:19 56.8 °F 45.9 °F 29.8 in ONO 7.1 mph 17.3 mph 66.5% 0 in
13:24 57 °F 45.9 °F 29.8 in ONO 8.5 mph 17 mph 66% 0 in
13:29 57.2 °F 45.5 °F 29.8 in ONO 8.9 mph 15 mph 64.8% 0 in
13:34 57.4 °F 45.7 °F 29.8 in ONO 9.2 mph 17.5 mph 64.9% 0 in
13:39 57.6 °F 45.5 °F 29.8 in ONO 8.9 mph 17.3 mph 64.1% 0 in
13:44 57.6 °F 45.1 °F 29.8 in Oeste 8.7 mph 23.5 mph 63.2% 0 in
13:49 57.6 °F 44.6 °F 29.8 in ONO 10.8 mph 23 mph 62.2% 0 in
13:54 57.6 °F 44.6 °F 29.8 in ONO 12.3 mph 23 mph 62.2% 0 in
13:59 57.7 °F 44.8 °F 29.8 in ONO 12.7 mph 21.3 mph 62.2% 0 in
14:04 57.7 °F 45.1 °F 29.8 in ONO 13 mph 21 mph 62.7% 0 in
14:09 57.9 °F 45.1 °F 29.8 in ONO 11.2 mph 18.4 mph 62.6% 0 in
14:14 57.9 °F 45 °F 29.8 in ONO 10 mph 19.6 mph 62.1% 0 in
14:19 57.7 °F 44.8 °F 29.8 in ONO 11.1 mph 24.6 mph 62% 0 in
14:24 57.6 °F 44.6 °F 29.8 in ONO 11.8 mph 25 mph 62.1% 0 in
14:29 57.4 °F 44.4 °F 29.8 in ONO 12.2 mph 25.3 mph 62% 0 in
14:34 57 °F 44.4 °F 29.8 in ONO 12.5 mph 25 mph 62.8% 0 in
14:39 56.8 °F 44.4 °F 29.8 in ONO 12.4 mph 21.9 mph 63% 0 in
14:44 56.8 °F 44.4 °F 29.8 in Oeste 12.3 mph 22.3 mph 63% 0 in
14:49 56.7 °F 44.1 °F 29.8 in Oeste 13.2 mph 24.2 mph 63% 0 in
14:54 56.3 °F 43.9 °F 29.8 in Oeste 13.7 mph 24 mph 63% 0 in
14:59 56.1 °F 43.7 °F 29.8 in ONO 13.7 mph 22 mph 63% 0 in
15:04 56.1 °F 43.7 °F 29.8 in ONO 13.7 mph 22.3 mph 63% 0 in
15:09 56.1 °F 43.7 °F 29.8 in ONO 12.6 mph 22.3 mph 63% 0 in
15:14 56.1 °F 44.1 °F 29.8 in ONO 11.8 mph 22 mph 63.8% 0 in
15:19 56.1 °F 43.7 °F 29.8 in ONO 10.7 mph 21 mph 63% 0 in
15:24 56.1 °F 43.9 °F 29.8 in Oeste 10 mph 21.9 mph 63.4% 0 in
15:29 55.9 °F 44.1 °F 29.8 in ONO 10.1 mph 22 mph 64.2% 0 in
15:34 55.9 °F 44.1 °F 29.8 in ONO 10.2 mph 20.4 mph 64.4% 0 in
15:39 55.9 °F 43.7 °F 29.8 in ONO 9.9 mph 21 mph 63.1% 0 in
15:44 56.3 °F 43.3 °F 29.8 in ONO 9.7 mph 21 mph 61.9% 0 in
15:49 56.7 °F 43.2 °F 29.8 in ONO 10.6 mph 21 mph 60.7% 0 in
15:54 56.7 °F 43 °F 29.8 in ONO 11.2 mph 23 mph 59.9% 0 in
15:59 56.8 °F 43 °F 29.8 in ONO 11.2 mph 23 mph 59.8% 0 in
16:04 56.8 °F 43.9 °F 29.8 in NNO 11.2 mph 25.6 mph 61.6% 0 in
16:09 56.7 °F 44.8 °F 29.8 in NNO 10.9 mph 26 mph 64.4% 0 in
16:14 56.1 °F 45 °F 29.8 in NNO 10.7 mph 21 mph 66.1% 0 in
16:19 55.8 °F 45.3 °F 29.8 in NO 10.3 mph 19 mph 67.9% 0 in
16:24 55.8 °F 45.7 °F 29.8 in NO 10 mph 17.3 mph 69% 0 in
16:29 55.6 °F 45.7 °F 29.8 in NNO 9.8 mph 17 mph 69% 0 in
16:34 55.6 °F 45.7 °F 29.8 in NNO 9.7 mph 15 mph 69% 0 in
16:39 55.6 °F 45.7 °F 29.8 in NNO 7.5 mph 14 mph 69% 0 in
16:44 55.6 °F 45.7 °F 29.8 in NO 5.9 mph 12 mph 69% 0 in
16:49 55.6 °F 45.3 °F 29.8 in NO 6.2 mph 12 mph 68.1% 0 in
16:54 55.8 °F 45.3 °F 29.8 in NO 6.4 mph 10 mph 67.7% 0 in
16:59 55.9 °F 45 °F 29.8 in NO 6.1 mph 11.4 mph 66.7% 0 in
17:04 56.1 °F 44.8 °F 29.8 in NO 5.9 mph 12 mph 66% 0 in
17:09 56.3 °F 44.8 °F 29.8 in NO 5.6 mph 12 mph 65.2% 0 in
17:14 56.7 °F 44.2 °F 29.8 in NO 5.4 mph 9.2 mph 63.3% 0 in
17:19 56.7 °F 43.9 °F 29.8 in NO 5.4 mph 10.4 mph 62.2% 0 in
17:24 56.8 °F 43.5 °F 29.8 in NO 5.4 mph 14.7 mph 60.8% 0 in
17:29 56.8 °F 42.8 °F 29.8 in NO 5.9 mph 15 mph 59.2% 0 in
17:34 57 °F 42.1 °F 29.8 in NO 6.2 mph 10.4 mph 57.5% 0 in
17:39 57 °F 41.9 °F 29.8 in NO 6 mph 10 mph 57% 0 in
17:44 56.8 °F 41.7 °F 29.8 in ONO 5.9 mph 8.5 mph 56.8% 0 in
17:49 56.7 °F 41.7 °F 29.8 in NO 5.2 mph 9 mph 57% 0 in
17:54 56.7 °F 41.4 °F 29.8 in ONO 4.7 mph 6 mph 56.4% 0 in
17:59 56.5 °F 41 °F 29.8 in ONO 4.2 mph 6 mph 56% 0 in
18:04 56.5 °F 41.2 °F 29.8 in ONO 4 mph 5 mph 56.3% 0 in
18:09 56.1 °F 41.2 °F 29.8 in ONO 3.5 mph 5 mph 57.3% 0 in
18:14 55.9 °F 41 °F 29.8 in Oeste 3.1 mph 5.2 mph 57.2% 0 in
18:19 55.8 °F 41.2 °F 29.8 in OSO 3.1 mph 5.2 mph 58% 0 in
18:24 55.6 °F 41.4 °F 29.8 in SO 3.1 mph 6.2 mph 58.6% 0 in
18:29 55.6 °F 41.5 °F 29.8 in SO 3.6 mph 6.9 mph 59.4% 0 in
18:34 55.2 °F 41.5 °F 29.8 in SO 4 mph 7 mph 60% 0 in
18:39 55.2 °F 41.5 °F 29.8 in SO 4.2 mph 7 mph 60% 0 in
18:44 55 °F 41.4 °F 29.8 in SO 4.3 mph 7 mph 60% 0 in
18:49 55 °F 41.4 °F 29.8 in SO 4.5 mph 7.4 mph 60% 0 in
18:54 55 °F 41.4 °F 29.8 in SO 4.7 mph 7 mph 60% 0 in
18:59 54.9 °F 41.2 °F 29.8 in SO 4.5 mph 6.9 mph 60% 0 in
19:04 54.9 °F 41.2 °F 29.8 in SO 4.3 mph 7 mph 60.1% 0 in
19:09 54.7 °F 41.4 °F 29.8 in SO 4.3 mph 6 mph 60.7% 0 in
19:14 54.5 °F 41.4 °F 29.8 in SO 4.3 mph 6 mph 61% 0 in
19:19 54.3 °F 41.2 °F 29.8 in SO 3.6 mph 5 mph 61% 0 in
19:24 54.1 °F 41 °F 29.8 in SO 3.1 mph 5 mph 61% 0 in
19:29 54 °F 41 °F 29.8 in OSO 3 mph 5.2 mph 61.5% 0 in
19:34 53.6 °F 41 °F 29.8 in Oeste 2.9 mph 5.2 mph 62.2% 0 in
19:39 53.2 °F 41 °F 29.8 in Oeste 3 mph 5.8 mph 63% 0 in
19:44 53.1 °F 40.8 °F 29.8 in Oeste 3.1 mph 7.4 mph 63% 0 in
19:49 53.1 °F 40.5 °F 29.9 in Oeste 3.9 mph 7 mph 62.1% 0 in
19:54 53.1 °F 40.5 °F 29.9 in Oeste 4.3 mph 7 mph 62% 0 in
19:59 53.1 °F 40.3 °F 29.9 in Oeste 4.3 mph 6 mph 62% 0 in
20:04 52.9 °F 40.3 °F 29.9 in Oeste 4.3 mph 6.2 mph 62% 0 in
20:09 52.9 °F 40.1 °F 29.9 in Oeste 4.3 mph 6.9 mph 61.9% 0 in
20:14 52.9 °F 39.7 °F 29.9 in Oeste 4.3 mph 7 mph 61% 0 in
20:19 53.1 °F 39.9 °F 29.9 in Oeste 4.1 mph 6.9 mph 60.8% 0 in
20:24 53.1 °F 39.4 °F 29.9 in Oeste 4 mph 8.5 mph 59.8% 0 in
20:29 53.2 °F 39 °F 29.9 in Oeste 4.7 mph 10.4 mph 58.2% 0 in
20:34 53.6 °F 38.7 °F 29.9 in Oeste 5.2 mph 10 mph 57.2% 0 in
20:39 53.8 °F 38.3 °F 29.9 in Oeste 4.9 mph 10 mph 55.8% 0 in
20:44 53.8 °F 37.9 °F 29.9 in Oeste 4.7 mph 10.4 mph 55% 0 in
20:49 53.6 °F 37.6 °F 29.9 in Oeste 5.4 mph 11.2 mph 54.6% 0 in
20:54 53.4 °F 36.9 °F 29.9 in Oeste 5.9 mph 12 mph 53.5% 0 in
20:59 53.4 °F 36.5 °F 29.9 in ONO 6.5 mph 14 mph 52.4% 0 in
21:04 53.6 °F 36.3 °F 29.9 in ONO 6.9 mph 14 mph 51.8% 0 in
21:09 53.8 °F 36.1 °F 29.9 in ONO 7.2 mph 13 mph 51% 0 in
21:14 54 °F 35.8 °F 29.9 in ONO 7.4 mph 13 mph 50.2% 0 in
21:19 54.1 °F 35.6 °F 29.9 in ONO 7.5 mph 13 mph 49.3% 0 in
21:24 54.3 °F 35.4 °F 29.9 in ONO 7.6 mph 12 mph 49% 0 in
21:29 54.3 °F 35.4 °F 29.9 in ONO 6.8 mph 12 mph 49% 0 in
21:34 54.3 °F 35.4 °F 29.9 in ONO 6.4 mph 11.8 mph 49% 0 in
21:39 54.1 °F 35.4 °F 29.9 in ONO 6.1 mph 12 mph 49% 0 in
21:44 54 °F 35.2 °F 29.9 in ONO 5.9 mph 9 mph 49% 0 in
21:49 54 °F 35.2 °F 29.9 in Oeste 6.1 mph 10.7 mph 49% 0 in
21:54 54 °F 35.2 °F 29.9 in Oeste 6.2 mph 12.7 mph 49% 0 in
21:59 53.8 °F 35.1 °F 29.9 in Oeste 6.3 mph 13 mph 49% 0 in
22:04 53.4 °F 35.2 °F 29.9 in Oeste 6.4 mph 11 mph 50% 0 in
22:09 53.2 °F 35.2 °F 29.9 in ONO 6.3 mph 11 mph 50% 0 in
22:14 53.2 °F 35.1 °F 29.9 in ONO 6.2 mph 10.7 mph 50% 0 in
22:19 53.1 °F 34.9 °F 29.9 in ONO 6.6 mph 13.5 mph 50% 0 in
22:24 53.1 °F 34.9 °F 29.9 in Oeste 6.9 mph 14 mph 50% 0 in
22:29 52.9 °F 35.1 °F 29.9 in Oeste 7.3 mph 13 mph 50.7% 0 in
22:34 52.9 °F 35.1 °F 29.9 in ONO 7.6 mph 13 mph 50.6% 0 in
22:39 52.9 °F 34.7 °F 29.9 in ONO 7.6 mph 12 mph 50% 0 in
22:44 52.9 °F 34.9 °F 29.9 in ONO 7.6 mph 12 mph 50.3% 0 in
22:49 52.7 °F 35.1 °F 29.9 in ONO 7.9 mph 13 mph 50.9% 0 in
22:54 52.5 °F 34.5 °F 29.9 in ONO 8.1 mph 13 mph 50.1% 0 in
22:59 52.5 °F 34.5 °F 29.9 in ONO 7.8 mph 12 mph 50% 0 in
23:04 52.5 °F 34.7 °F 29.9 in ONO 7.6 mph 12 mph 50.6% 0 in
23:09 52.3 °F 34.7 °F 29.9 in ONO 7.5 mph 12 mph 51% 0 in
23:14 52.3 °F 34.7 °F 29.9 in ONO 7.4 mph 12 mph 51% 0 in
23:19 52.2 °F 34.5 °F 29.9 in ONO 7.1 mph 12 mph 51% 0 in
23:24 52.2 °F 34.5 °F 29.9 in ONO 6.9 mph 13 mph 51% 0 in
23:29 52.2 °F 34.5 °F 29.9 in ONO 6.9 mph 14.7 mph 51% 0 in
23:34 52.2 °F 34.5 °F 30 in ONO 6.9 mph 15 mph 51% 0 in
23:39 52.2 °F 34.5 °F 30 in ONO 8.3 mph 15 mph 51% 0 in
23:44 52.2 °F 34.7 °F 30 in ONO 9.2 mph 15.2 mph 51% 0 in
23:49 52.3 °F 34.7 °F 30 in ONO 9.7 mph 15 mph 51% 0 in
23:54 52.2 °F 35.1 °F 30 in ONO 10 mph 15 mph 52% 0 in
23:59 52 °F 35.1 °F 30 in ONO 8.8 mph 12.3 mph 52.5% 0 in
Murcia-Puente Tocinos, España
Compliments of Weather Underground - 2.75 mb

La estación de MeteoMurcia.com, publica sus datos en los siguientes proyectos:

Weather Underground PWS IMURCIAP2 Meteoclimatic www.awekas.at

W3Counter
Web Analytics